New Milford, Pennsylvania
Current Conditions -  °F | °C
As of 12:53 PM on Wednesday 28 Jan 2015 (Local Time) from KBGM Reporting Station
Clear Clear  
Wind Chill:   Ceiling: Unl
Heat Index: 19°   Visibility: 10mi
Dew Point:   Wind: 15mph
Humidity: 46%   Direction: 320°NW
Pressure: 30.09"   Gusts: 23mph
Location:  41.87°N, 75.73°W
Report Text: KBGM 281753Z 32013G20KT 10SM CLR M07/M17 A3009 RMK AO2 SLP221 T10721172 11072 21139 51005
Loading
Personal Weather Stations






























Interactive Weather Map New forecast layout! Learn more

10-Day Weather Forecast

Advertisements
Track Severe Weather on mobile